sensor_id;sensor_type;location;lat;lon;timestamp;P1;durP1;ratioP1;P2;durP2;ratioP2
8958;SDS011;4514;49.476;8.484;2022-09-20T00:00:41;6.35;;;3.10;;
8958;SDS011;4514;49.476;8.484;2022-09-20T00:03:08;5.38;;;2.80;;
8958;SDS011;4514;49.476;8.484;2022-09-20T00:05:35;5.50;;;2.40;;
8958;SDS011;4514;49.476;8.484;2022-09-20T00:08:02;4.57;;;2.45;;
8958;SDS011;4514;49.476;8.484;2022-09-20T00:10:28;3.85;;;2.40;;
8958;SDS011;4514;49.476;8.484;2022-09-20T00:13:00;3.95;;;2.45;;
8958;SDS011;4514;49.476;8.484;2022-09-20T00:15:25;5.00;;;2.15;;
8958;SDS011;4514;49.476;8.484;2022-09-20T00:17:57;4.35;;;2.60;;
8958;SDS011;4514;49.476;8.484;2022-09-20T00:20:24;5.15;;;2.35;;
8958;SDS011;4514;49.476;8.484;2022-09-20T00:22:50;5.15;;;2.30;;
8958;SDS011;4514;49.476;8.484;2022-09-20T00:25:16;5.20;;;2.30;;
8958;SDS011;4514;49.476;8.484;2022-09-20T00:27:42;4.32;;;2.38;;
8958;SDS011;4514;49.476;8.484;2022-09-20T00:30:08;5.43;;;2.47;;
8958;SDS011;4514;49.476;8.484;2022-09-20T00:32:34;7.32;;;3.00;;
8958;SDS011;4514;49.476;8.484;2022-09-20T00:34:59;3.78;;;2.38;;
8958;SDS011;4514;49.476;8.484;2022-09-20T00:37:41;4.28;;;2.25;;
8958;SDS011;4514;49.476;8.484;2022-09-20T00:40:08;4.75;;;2.20;;
8958;SDS011;4514;49.476;8.484;2022-09-20T00:42:38;3.10;;;1.98;;
8958;SDS011;4514;49.476;8.484;2022-09-20T00:47:42;4.88;;;2.28;;
8958;SDS011;4514;49.476;8.484;2022-09-20T00:52:37;3.88;;;2.00;;
8958;SDS011;4514;49.476;8.484;2022-09-20T00:55:06;6.82;;;2.10;;
8958;SDS011;4514;49.476;8.484;2022-09-20T00:57:34;3.50;;;2.00;;
8958;SDS011;4514;49.476;8.484;2022-09-20T01:00:02;4.38;;;2.03;;
8958;SDS011;4514;49.476;8.484;2022-09-20T01:02:31;5.68;;;2.10;;
8958;SDS011;4514;49.476;8.484;2022-09-20T01:04:57;3.85;;;2.10;;
8958;SDS011;4514;49.476;8.484;2022-09-20T01:07:25;4.88;;;2.30;;
8958;SDS011;4514;49.476;8.484;2022-09-20T01:09:53;4.35;;;1.92;;
8958;SDS011;4514;49.476;8.484;2022-09-20T01:12:23;4.25;;;2.20;;
8958;SDS011;4514;49.476;8.484;2022-09-20T01:14:53;3.88;;;2.25;;
8958;SDS011;4514;49.476;8.484;2022-09-20T01:17:20;6.25;;;2.60;;
8958;SDS011;4514;49.476;8.484;2022-09-20T01:22:32;6.90;;;2.53;;
8958;SDS011;4514;49.476;8.484;2022-09-20T01:30:07;5.45;;;2.72;;
8958;SDS011;4514;49.476;8.484;2022-09-20T01:32:46;3.78;;;2.10;;
8958;SDS011;4514;49.476;8.484;2022-09-20T01:35:36;5.13;;;2.47;;
8958;SDS011;4514;49.476;8.484;2022-09-20T01:46:34;4.45;;;2.70;;
8958;SDS011;4514;49.476;8.484;2022-09-20T02:05:27;7.40;;;2.83;;
8958;SDS011;4514;49.476;8.484;2022-09-20T02:24:24;6.93;;;3.55;;
8958;SDS011;4514;49.476;8.484;2022-09-20T02:27:09;5.97;;;3.20;;
8958;SDS011;4514;49.476;8.484;2022-09-20T02:29:59;6.00;;;3.15;;
8958;SDS011;4514;49.476;8.484;2022-09-20T02:35:29;6.57;;;2.67;;
8958;SDS011;4514;49.476;8.484;2022-09-20T02:41:03;5.03;;;2.72;;
8958;SDS011;4514;49.476;8.484;2022-09-20T02:46:22;5.13;;;3.15;;
8958;SDS011;4514;49.476;8.484;2022-09-20T02:51:32;6.13;;;3.10;;
8958;SDS011;4514;49.476;8.484;2022-09-20T02:59:58;6.88;;;2.45;;
8958;SDS011;4514;49.476;8.484;2022-09-20T03:05:10;6.57;;;3.08;;
8958;SDS011;4514;49.476;8.484;2022-09-20T03:07:44;5.88;;;2.70;;
8958;SDS011;4514;49.476;8.484;2022-09-20T03:10:34;4.47;;;2.10;;
8958;SDS011;4514;49.476;8.484;2022-09-20T03:21:37;6.68;;;2.60;;
8958;SDS011;4514;49.476;8.484;2022-09-20T03:34:51;3.72;;;1.80;;
8958;SDS011;4514;49.476;8.484;2022-09-20T03:43:40;9.05;;;2.50;;
8958;SDS011;4514;49.476;8.484;2022-09-20T03:48:42;8.13;;;2.63;;
8958;SDS011;4514;49.476;8.484;2022-09-20T03:59:22;8.55;;;2.85;;
8958;SDS011;4514;49.476;8.484;2022-09-20T04:04:55;5.75;;;2.30;;
8958;SDS011;4514;49.476;8.484;2022-09-20T04:07:45;6.10;;;2.35;;
8958;SDS011;4514;49.476;8.484;2022-09-20T04:10:36;7.72;;;2.70;;
8958;SDS011;4514;49.476;8.484;2022-09-20T04:13:33;5.85;;;2.22;;
8958;SDS011;4514;49.476;8.484;2022-09-20T04:18:57;3.63;;;2.05;;
8958;SDS011;4514;49.476;8.484;2022-09-20T04:21:38;4.72;;;2.00;;
8958;SDS011;4514;49.476;8.484;2022-09-20T04:24:14;5.20;;;2.38;;
8958;SDS011;4514;49.476;8.484;2022-09-20T04:27:02;4.22;;;2.05;;
8958;SDS011;4514;49.476;8.484;2022-09-20T04:32:30;4.53;;;1.95;;
8958;SDS011;4514;49.476;8.484;2022-09-20T04:38:44;4.30;;;1.60;;
8958;SDS011;4514;49.476;8.484;2022-09-20T04:41:29;6.53;;;2.30;;
8958;SDS011;4514;49.476;8.484;2022-09-20T04:50:19;13.18;;;7.32;;
8958;SDS011;4514;49.476;8.484;2022-09-20T05:17:34;7.28;;;2.78;;
8958;SDS011;4514;49.476;8.484;2022-09-20T05:39:44;7.68;;;2.90;;
8958;SDS011;4514;49.476;8.484;2022-09-20T05:42:18;5.78;;;2.90;;
8958;SDS011;4514;49.476;8.484;2022-09-20T05:45:00;7.35;;;2.90;;
8958;SDS011;4514;49.476;8.484;2022-09-20T05:50:23;6.70;;;3.33;;
8958;SDS011;4514;49.476;8.484;2022-09-20T06:01:12;8.30;;;3.40;;
8958;SDS011;4514;49.476;8.484;2022-09-20T06:06:46;5.00;;;3.20;;
8958;SDS011;4514;49.476;8.484;2022-09-20T06:09:51;11.82;;;3.42;;
8958;SDS011;4514;49.476;8.484;2022-09-20T06:23:31;8.25;;;3.10;;
8958;SDS011;4514;49.476;8.484;2022-09-20T06:26:00;4.25;;;2.60;;
8958;SDS011;4514;49.476;8.484;2022-09-20T06:28:34;5.45;;;2.95;;
8958;SDS011;4514;49.476;8.484;2022-09-20T06:31:06;6.70;;;3.05;;
8958;SDS011;4514;49.476;8.484;2022-09-20T06:33:50;5.15;;;3.05;;
8958;SDS011;4514;49.476;8.484;2022-09-20T06:36:20;7.07;;;3.17;;
8958;SDS011;4514;49.476;8.484;2022-09-20T06:42:11;6.65;;;3.55;;
8958;SDS011;4514;49.476;8.484;2022-09-20T06:44:39;7.33;;;3.90;;
8958;SDS011;4514;49.476;8.484;2022-09-20T06:47:10;8.27;;;3.80;;
8958;SDS011;4514;49.476;8.484;2022-09-20T06:49:40;6.95;;;3.38;;
8958;SDS011;4514;49.476;8.484;2022-09-20T06:52:07;10.02;;;3.40;;
8958;SDS011;4514;49.476;8.484;2022-09-20T06:54:45;7.78;;;3.30;;
8958;SDS011;4514;49.476;8.484;2022-09-20T06:57:13;9.77;;;4.00;;
8958;SDS011;4514;49.476;8.484;2022-09-20T06:59:41;6.68;;;3.67;;
8958;SDS011;4514;49.476;8.484;2022-09-20T07:02:06;7.65;;;3.47;;
8958;SDS011;4514;49.476;8.484;2022-09-20T07:04:32;8.65;;;3.47;;
8958;SDS011;4514;49.476;8.484;2022-09-20T07:07:02;6.53;;;3.40;;
8958;SDS011;4514;49.476;8.484;2022-09-20T07:09:31;6.85;;;2.83;;
8958;SDS011;4514;49.476;8.484;2022-09-20T07:11:57;8.20;;;2.83;;
8958;SDS011;4514;49.476;8.484;2022-09-20T07:14:25;7.00;;;3.25;;
8958;SDS011;4514;49.476;8.484;2022-09-20T07:16:51;8.80;;;2.92;;
8958;SDS011;4514;49.476;8.484;2022-09-20T07:19:17;6.95;;;2.80;;
8958;SDS011;4514;49.476;8.484;2022-09-20T07:21:43;8.90;;;3.50;;
8958;SDS011;4514;49.476;8.484;2022-09-20T07:24:08;6.95;;;2.90;;
8958;SDS011;4514;49.476;8.484;2022-09-20T07:26:34;7.95;;;2.80;;
8958;SDS011;4514;49.476;8.484;2022-09-20T07:29:00;9.68;;;3.33;;
8958;SDS011;4514;49.476;8.484;2022-09-20T07:31:26;6.15;;;2.30;;
8958;SDS011;4514;49.476;8.484;2022-09-20T07:33:55;8.20;;;2.60;;
8958;SDS011;4514;49.476;8.484;2022-09-20T07:36:20;7.45;;;2.58;;
8958;SDS011;4514;49.476;8.484;2022-09-20T07:38:48;6.40;;;3.03;;
8958;SDS011;4514;49.476;8.484;2022-09-20T07:41:17;9.57;;;3.25;;
8958;SDS011;4514;49.476;8.484;2022-09-20T07:43:43;5.40;;;2.83;;
8958;SDS011;4514;49.476;8.484;2022-09-20T07:46:08;6.20;;;2.88;;
8958;SDS011;4514;49.476;8.484;2022-09-20T07:48:37;7.13;;;2.80;;
8958;SDS011;4514;49.476;8.484;2022-09-20T07:51:05;5.57;;;2.67;;
8958;SDS011;4514;49.476;8.484;2022-09-20T07:53:34;6.15;;;3.80;;
8958;SDS011;4514;49.476;8.484;2022-09-20T07:58:30;7.05;;;2.95;;
8958;SDS011;4514;49.476;8.484;2022-09-20T08:00:58;7.10;;;2.97;;
8958;SDS011;4514;49.476;8.484;2022-09-20T08:03:25;8.15;;;3.05;;
8958;SDS011;4514;49.476;8.484;2022-09-20T08:05:51;7.60;;;3.25;;
8958;SDS011;4514;49.476;8.484;2022-09-20T08:08:24;36.88;;;5.25;;
8958;SDS011;4514;49.476;8.484;2022-09-20T08:10:49;6.35;;;3.42;;
8958;SDS011;4514;49.476;8.484;2022-09-20T08:13:17;7.53;;;3.70;;
8958;SDS011;4514;49.476;8.484;2022-09-20T08:15:44;6.88;;;3.28;;
8958;SDS011;4514;49.476;8.484;2022-09-20T08:18:13;9.13;;;3.60;;
8958;SDS011;4514;49.476;8.484;2022-09-20T08:20:38;7.53;;;3.25;;
8958;SDS011;4514;49.476;8.484;2022-09-20T08:23:04;8.77;;;3.17;;
8958;SDS011;4514;49.476;8.484;2022-09-20T08:25:30;5.43;;;2.83;;
8958;SDS011;4514;49.476;8.484;2022-09-20T08:27:58;10.07;;;3.50;;
8958;SDS011;4514;49.476;8.484;2022-09-20T08:30:23;8.43;;;3.03;;
8958;SDS011;4514;49.476;8.484;2022-09-20T08:32:51;10.50;;;3.85;;
8958;SDS011;4514;49.476;8.484;2022-09-20T08:35:17;8.40;;;3.20;;
8958;SDS011;4514;49.476;8.484;2022-09-20T08:37:43;8.88;;;2.90;;
8958;SDS011;4514;49.476;8.484;2022-09-20T08:40:11;6.40;;;2.53;;
8958;SDS011;4514;49.476;8.484;2022-09-20T08:42:37;6.85;;;2.35;;
8958;SDS011;4514;49.476;8.484;2022-09-20T08:45:06;10.23;;;3.80;;
8958;SDS011;4514;49.476;8.484;2022-09-20T08:47:41;8.98;;;3.75;;
8958;SDS011;4514;49.476;8.484;2022-09-20T08:50:15;12.27;;;4.40;;
8958;SDS011;4514;49.476;8.484;2022-09-20T08:52:43;7.22;;;3.83;;
8958;SDS011;4514;49.476;8.484;2022-09-20T08:55:15;7.93;;;3.10;;
8958;SDS011;4514;49.476;8.484;2022-09-20T08:57:42;5.57;;;2.53;;
8958;SDS011;4514;49.476;8.484;2022-09-20T09:00:17;7.82;;;3.10;;
8958;SDS011;4514;49.476;8.484;2022-09-20T09:02:44;9.63;;;3.42;;
8958;SDS011;4514;49.476;8.484;2022-09-20T09:08:01;9.35;;;2.80;;
8958;SDS011;4514;49.476;8.484;2022-09-20T09:10:31;6.30;;;2.65;;
8958;SDS011;4514;49.476;8.484;2022-09-20T09:13:00;8.07;;;2.58;;
8958;SDS011;4514;49.476;8.484;2022-09-20T09:15:29;6.43;;;2.42;;
8958;SDS011;4514;49.476;8.484;2022-09-20T09:17:59;4.90;;;2.00;;
8958;SDS011;4514;49.476;8.484;2022-09-20T09:20:25;8.13;;;2.60;;
8958;SDS011;4514;49.476;8.484;2022-09-20T09:22:58;8.23;;;3.08;;
8958;SDS011;4514;49.476;8.484;2022-09-20T09:25:36;9.60;;;3.15;;
8958;SDS011;4514;49.476;8.484;2022-09-20T09:38:35;7.18;;;2.53;;
8958;SDS011;4514;49.476;8.484;2022-09-20T09:43:41;8.00;;;3.55;;
8958;SDS011;4514;49.476;8.484;2022-09-20T09:46:20;7.32;;;2.45;;
8958;SDS011;4514;49.476;8.484;2022-09-20T09:51:35;7.00;;;3.00;;
8958;SDS011;4514;49.476;8.484;2022-09-20T09:54:01;9.77;;;2.55;;
8958;SDS011;4514;49.476;8.484;2022-09-20T09:59:50;7.63;;;2.45;;
8958;SDS011;4514;49.476;8.484;2022-09-20T10:08:11;9.23;;;2.78;;
8958;SDS011;4514;49.476;8.484;2022-09-20T10:11:07;6.80;;;2.20;;
8958;SDS011;4514;49.476;8.484;2022-09-20T10:13:51;5.75;;;2.40;;
8958;SDS011;4514;49.476;8.484;2022-09-20T10:21:54;6.40;;;2.40;;
8958;SDS011;4514;49.476;8.484;2022-09-20T10:24:58;3.83;;;2.03;;
8958;SDS011;4514;49.476;8.484;2022-09-20T10:30:22;5.03;;;2.08;;
8958;SDS011;4514;49.476;8.484;2022-09-20T10:44:36;6.45;;;2.33;;
8958;SDS011;4514;49.476;8.484;2022-09-20T10:47:16;5.15;;;2.30;;
8958;SDS011;4514;49.476;8.484;2022-09-20T10:58:14;6.85;;;3.58;;
8958;SDS011;4514;49.476;8.484;2022-09-20T11:03:34;5.28;;;2.63;;
8958;SDS011;4514;49.476;8.484;2022-09-20T11:08:54;5.28;;;2.67;;
8958;SDS011;4514;49.476;8.484;2022-09-20T11:11:25;3.92;;;2.60;;
8958;SDS011;4514;49.476;8.484;2022-09-20T11:19:37;2.45;;;1.52;;
8958;SDS011;4514;49.476;8.484;2022-09-20T11:22:22;2.72;;;1.75;;
8958;SDS011;4514;49.476;8.484;2022-09-20T11:27:48;5.15;;;2.13;;
8958;SDS011;4514;49.476;8.484;2022-09-20T11:30:21;4.10;;;2.15;;
8958;SDS011;4514;49.476;8.484;2022-09-20T11:38:15;4.47;;;1.80;;
8958;SDS011;4514;49.476;8.484;2022-09-20T11:40:56;4.82;;;1.45;;
8958;SDS011;4514;49.476;8.484;2022-09-20T11:43:26;5.72;;;3.72;;
8958;SDS011;4514;49.476;8.484;2022-09-20T11:45:57;7.07;;;5.70;;
8958;SDS011;4514;49.476;8.484;2022-09-20T11:48:33;3.15;;;1.92;;
8958;SDS011;4514;49.476;8.484;2022-09-20T11:56:27;3.70;;;2.00;;
8958;SDS011;4514;49.476;8.484;2022-09-20T11:58:56;2.78;;;1.80;;
8958;SDS011;4514;49.476;8.484;2022-09-20T12:04:10;4.03;;;2.30;;
8958;SDS011;4514;49.476;8.484;2022-09-20T12:06:42;2.67;;;1.60;;
8958;SDS011;4514;49.476;8.484;2022-09-20T12:09:24;2.30;;;1.80;;
8958;SDS011;4514;49.476;8.484;2022-09-20T12:11:53;2.58;;;1.70;;
8958;SDS011;4514;49.476;8.484;2022-09-20T12:14:22;2.78;;;2.05;;
8958;SDS011;4514;49.476;8.484;2022-09-20T12:16:49;3.45;;;2.03;;
8958;SDS011;4514;49.476;8.484;2022-09-20T12:27:02;6.20;;;3.00;;
8958;SDS011;4514;49.476;8.484;2022-09-20T12:29:53;6.32;;;2.60;;
8958;SDS011;4514;49.476;8.484;2022-09-20T12:32:55;4.90;;;3.20;;
8958;SDS011;4514;49.476;8.484;2022-09-20T12:43:47;2.00;;;1.60;;
8958;SDS011;4514;49.476;8.484;2022-09-20T12:46:18;3.17;;;2.35;;
8958;SDS011;4514;49.476;8.484;2022-09-20T12:48:58;2.95;;;2.40;;
8958;SDS011;4514;49.476;8.484;2022-09-20T12:52:24;2.75;;;1.98;;
8958;SDS011;4514;49.476;8.484;2022-09-20T12:55:23;3.90;;;2.08;;
8958;SDS011;4514;49.476;8.484;2022-09-20T12:57:53;3.08;;;2.00;;
8958;SDS011;4514;49.476;8.484;2022-09-20T13:03:48;2.75;;;1.77;;
8958;SDS011;4514;49.476;8.484;2022-09-20T13:08:34;2.45;;;1.90;;
8958;SDS011;4514;49.476;8.484;2022-09-20T13:13:44;5.47;;;2.03;;
8958;SDS011;4514;49.476;8.484;2022-09-20T13:16:21;1.63;;;1.52;;
8958;SDS011;4514;49.476;8.484;2022-09-20T13:19:04;2.08;;;1.60;;
8958;SDS011;4514;49.476;8.484;2022-09-20T13:21:41;2.45;;;1.80;;
8958;SDS011;4514;49.476;8.484;2022-09-20T13:24:14;3.72;;;1.85;;
8958;SDS011;4514;49.476;8.484;2022-09-20T13:26:45;2.55;;;1.77;;
8958;SDS011;4514;49.476;8.484;2022-09-20T13:40:15;4.40;;;2.42;;
8958;SDS011;4514;49.476;8.484;2022-09-20T13:42:48;2.70;;;1.80;;
8958;SDS011;4514;49.476;8.484;2022-09-20T13:45:16;4.07;;;1.90;;
8958;SDS011;4514;49.476;8.484;2022-09-20T13:47:43;3.15;;;1.60;;
8958;SDS011;4514;49.476;8.484;2022-09-20T13:50:27;3.08;;;1.90;;
8958;SDS011;4514;49.476;8.484;2022-09-20T13:52:59;3.92;;;2.13;;
8958;SDS011;4514;49.476;8.484;2022-09-20T13:55:26;3.20;;;1.80;;
8958;SDS011;4514;49.476;8.484;2022-09-20T14:00:53;4.68;;;2.40;;
8958;SDS011;4514;49.476;8.484;2022-09-20T14:03:22;4.18;;;2.20;;
8958;SDS011;4514;49.476;8.484;2022-09-20T14:05:51;4.97;;;2.40;;
8958;SDS011;4514;49.476;8.484;2022-09-20T14:08:22;5.32;;;2.33;;
8958;SDS011;4514;49.476;8.484;2022-09-20T14:11:10;3.40;;;2.30;;
8958;SDS011;4514;49.476;8.484;2022-09-20T14:13:42;4.63;;;2.50;;
8958;SDS011;4514;49.476;8.484;2022-09-20T14:16:08;5.32;;;2.88;;
8958;SDS011;4514;49.476;8.484;2022-09-20T14:18:37;4.85;;;3.30;;
8958;SDS011;4514;49.476;8.484;2022-09-20T14:21:04;3.92;;;2.95;;
8958;SDS011;4514;49.476;8.484;2022-09-20T14:23:47;5.60;;;3.65;;
8958;SDS011;4514;49.476;8.484;2022-09-20T14:28:40;5.57;;;3.60;;
8958;SDS011;4514;49.476;8.484;2022-09-20T14:31:16;4.22;;;2.80;;
8958;SDS011;4514;49.476;8.484;2022-09-20T14:33:45;5.00;;;3.00;;
8958;SDS011;4514;49.476;8.484;2022-09-20T14:36:14;6.28;;;3.17;;
8958;SDS011;4514;49.476;8.484;2022-09-20T14:38:46;4.22;;;2.90;;
8958;SDS011;4514;49.476;8.484;2022-09-20T14:41:12;5.15;;;2.72;;
8958;SDS011;4514;49.476;8.484;2022-09-20T14:43:38;5.18;;;2.88;;
8958;SDS011;4514;49.476;8.484;2022-09-20T14:46:06;4.72;;;3.10;;
8958;SDS011;4514;49.476;8.484;2022-09-20T14:48:44;4.43;;;2.30;;
8958;SDS011;4514;49.476;8.484;2022-09-20T14:53:38;3.30;;;1.73;;
8958;SDS011;4514;49.476;8.484;2022-09-20T14:58:32;2.20;;;1.73;;
8958;SDS011;4514;49.476;8.484;2022-09-20T15:01:03;2.50;;;2.10;;
8958;SDS011;4514;49.476;8.484;2022-09-20T15:03:38;3.15;;;2.35;;
8958;SDS011;4514;49.476;8.484;2022-09-20T15:06:05;4.07;;;2.22;;
8958;SDS011;4514;49.476;8.484;2022-09-20T15:08:33;4.43;;;2.50;;
8958;SDS011;4514;49.476;8.484;2022-09-20T15:11:02;3.80;;;1.95;;
8958;SDS011;4514;49.476;8.484;2022-09-20T15:13:27;3.65;;;1.90;;
8958;SDS011;4514;49.476;8.484;2022-09-20T15:15:52;2.55;;;1.60;;
8958;SDS011;4514;49.476;8.484;2022-09-20T15:18:22;3.17;;;1.65;;
8958;SDS011;4514;49.476;8.484;2022-09-20T15:20:50;2.75;;;1.65;;
8958;SDS011;4514;49.476;8.484;2022-09-20T15:23:16;5.47;;;1.83;;
8958;SDS011;4514;49.476;8.484;2022-09-20T15:25:42;3.88;;;1.80;;
8958;SDS011;4514;49.476;8.484;2022-09-20T15:28:12;3.05;;;1.60;;
8958;SDS011;4514;49.476;8.484;2022-09-20T15:30:42;3.92;;;1.85;;
8958;SDS011;4514;49.476;8.484;2022-09-20T15:33:10;3.88;;;1.83;;
8958;SDS011;4514;49.476;8.484;2022-09-20T15:35:39;2.20;;;1.80;;
8958;SDS011;4514;49.476;8.484;2022-09-20T15:38:05;3.17;;;1.65;;
8958;SDS011;4514;49.476;8.484;2022-09-20T15:40:33;4.22;;;1.70;;
8958;SDS011;4514;49.476;8.484;2022-09-20T15:42:59;2.72;;;1.85;;
8958;SDS011;4514;49.476;8.484;2022-09-20T15:45:27;3.63;;;1.90;;
8958;SDS011;4514;49.476;8.484;2022-09-20T15:47:54;2.75;;;1.65;;
8958;SDS011;4514;49.476;8.484;2022-09-20T15:50:19;2.83;;;2.08;;
8958;SDS011;4514;49.476;8.484;2022-09-20T15:52:47;3.30;;;1.90;;
8958;SDS011;4514;49.476;8.484;2022-09-20T15:55:18;3.05;;;1.70;;
8958;SDS011;4514;49.476;8.484;2022-09-20T15:57:44;2.42;;;1.70;;
8958;SDS011;4514;49.476;8.484;2022-09-20T16:00:10;4.05;;;2.00;;
8958;SDS011;4514;49.476;8.484;2022-09-20T16:02:36;3.13;;;1.77;;
8958;SDS011;4514;49.476;8.484;2022-09-20T16:05:01;5.88;;;2.60;;
8958;SDS011;4514;49.476;8.484;2022-09-20T16:07:27;5.18;;;3.25;;
8958;SDS011;4514;49.476;8.484;2022-09-20T16:09:53;3.67;;;2.57;;
8958;SDS011;4514;49.476;8.484;2022-09-20T16:12:20;4.30;;;2.08;;
8958;SDS011;4514;49.476;8.484;2022-09-20T16:14:46;6.32;;;2.10;;
8958;SDS011;4514;49.476;8.484;2022-09-20T16:17:12;4.32;;;2.05;;
8958;SDS011;4514;49.476;8.484;2022-09-20T16:19:37;2.30;;;1.70;;
8958;SDS011;4514;49.476;8.484;2022-09-20T16:22:04;3.58;;;1.60;;
8958;SDS011;4514;49.476;8.484;2022-09-20T16:24:30;4.07;;;1.75;;
8958;SDS011;4514;49.476;8.484;2022-09-20T16:26:58;2.58;;;1.60;;
8958;SDS011;4514;49.476;8.484;2022-09-20T16:29:28;3.70;;;1.67;;
8958;SDS011;4514;49.476;8.484;2022-09-20T16:31:56;4.60;;;1.70;;
8958;SDS011;4514;49.476;8.484;2022-09-20T16:34:27;4.40;;;1.55;;
8958;SDS011;4514;49.476;8.484;2022-09-20T16:37:01;3.22;;;1.80;;
8958;SDS011;4514;49.476;8.484;2022-09-20T16:39:32;2.58;;;1.70;;
8958;SDS011;4514;49.476;8.484;2022-09-20T16:42:02;5.82;;;2.10;;
8958;SDS011;4514;49.476;8.484;2022-09-20T16:44:29;2.90;;;1.75;;
8958;SDS011;4514;49.476;8.484;2022-09-20T16:46:56;3.22;;;1.75;;
8958;SDS011;4514;49.476;8.484;2022-09-20T16:49:21;5.05;;;2.45;;
8958;SDS011;4514;49.476;8.484;2022-09-20T16:51:50;4.05;;;2.92;;
8958;SDS011;4514;49.476;8.484;2022-09-20T16:54:16;4.22;;;2.80;;
8958;SDS011;4514;49.476;8.484;2022-09-20T16:56:45;3.65;;;2.22;;
8958;SDS011;4514;49.476;8.484;2022-09-20T16:59:13;4.90;;;2.40;;
8958;SDS011;4514;49.476;8.484;2022-09-20T17:01:40;3.30;;;2.03;;
8958;SDS011;4514;49.476;8.484;2022-09-20T17:04:09;4.63;;;2.30;;
8958;SDS011;4514;49.476;8.484;2022-09-20T17:06:37;3.70;;;2.03;;
8958;SDS011;4514;49.476;8.484;2022-09-20T17:09:03;3.67;;;2.10;;
8958;SDS011;4514;49.476;8.484;2022-09-20T17:11:32;3.88;;;1.80;;
8958;SDS011;4514;49.476;8.484;2022-09-20T17:14:00;2.15;;;1.50;;
8958;SDS011;4514;49.476;8.484;2022-09-20T17:16:28;5.25;;;2.22;;
8958;SDS011;4514;49.476;8.484;2022-09-20T17:18:59;4.68;;;2.35;;
8958;SDS011;4514;49.476;8.484;2022-09-20T17:21:36;3.92;;;2.00;;
8958;SDS011;4514;49.476;8.484;2022-09-20T17:24:03;4.53;;;1.90;;
8958;SDS011;4514;49.476;8.484;2022-09-20T17:26:41;5.72;;;2.00;;
8958;SDS011;4514;49.476;8.484;2022-09-20T17:29:09;4.43;;;2.40;;
8958;SDS011;4514;49.476;8.484;2022-09-20T17:31:40;3.63;;;2.17;;
8958;SDS011;4514;49.476;8.484;2022-09-20T17:34:08;5.07;;;2.65;;
8958;SDS011;4514;49.476;8.484;2022-09-20T17:36:41;5.72;;;2.33;;
8958;SDS011;4514;49.476;8.484;2022-09-20T17:39:08;4.25;;;2.10;;
8958;SDS011;4514;49.476;8.484;2022-09-20T17:41:36;3.88;;;2.17;;
8958;SDS011;4514;49.476;8.484;2022-09-20T17:44:03;3.70;;;2.33;;
8958;SDS011;4514;49.476;8.484;2022-09-20T17:46:32;2.80;;;2.10;;
8958;SDS011;4514;49.476;8.484;2022-09-20T17:49:03;4.53;;;2.30;;
8958;SDS011;4514;49.476;8.484;2022-09-20T17:51:31;4.90;;;2.10;;
8958;SDS011;4514;49.476;8.484;2022-09-20T17:53:57;3.70;;;1.98;;
8958;SDS011;4514;49.476;8.484;2022-09-20T17:56:25;4.22;;;2.45;;
8958;SDS011;4514;49.476;8.484;2022-09-20T17:58:56;5.18;;;2.47;;
8958;SDS011;4514;49.476;8.484;2022-09-20T18:01:25;4.15;;;2.63;;
8958;SDS011;4514;49.476;8.484;2022-09-20T18:03:53;5.95;;;2.33;;
8958;SDS011;4514;49.476;8.484;2022-09-20T18:08:47;2.72;;;1.90;;
8958;SDS011;4514;49.476;8.484;2022-09-20T18:11:17;4.72;;;2.22;;
8958;SDS011;4514;49.476;8.484;2022-09-20T18:13:46;3.92;;;2.30;;
8958;SDS011;4514;49.476;8.484;2022-09-20T18:16:15;4.45;;;2.10;;
8958;SDS011;4514;49.476;8.484;2022-09-20T18:18:42;4.78;;;2.25;;
8958;SDS011;4514;49.476;8.484;2022-09-20T18:21:14;3.63;;;1.90;;
8958;SDS011;4514;49.476;8.484;2022-09-20T18:23:44;3.78;;;2.00;;
8958;SDS011;4514;49.476;8.484;2022-09-20T18:26:11;9.50;;;2.80;;
8958;SDS011;4514;49.476;8.484;2022-09-20T18:28:57;5.75;;;2.28;;
8958;SDS011;4514;49.476;8.484;2022-09-20T18:31:29;6.57;;;2.28;;
8958;SDS011;4514;49.476;8.484;2022-09-20T18:34:00;5.97;;;2.30;;
8958;SDS011;4514;49.476;8.484;2022-09-20T18:36:30;3.28;;;2.10;;
8958;SDS011;4514;49.476;8.484;2022-09-20T18:39:00;3.28;;;2.15;;
8958;SDS011;4514;49.476;8.484;2022-09-20T18:41:28;4.13;;;2.17;;
8958;SDS011;4514;49.476;8.484;2022-09-20T18:43:57;6.85;;;2.50;;
8958;SDS011;4514;49.476;8.484;2022-09-20T18:46:27;5.93;;;2.70;;
8958;SDS011;4514;49.476;8.484;2022-09-20T18:48:55;3.80;;;2.30;;
8958;SDS011;4514;49.476;8.484;2022-09-20T18:51:22;4.18;;;2.20;;
8958;SDS011;4514;49.476;8.484;2022-09-20T18:53:48;3.75;;;2.08;;
8958;SDS011;4514;49.476;8.484;2022-09-20T18:58:49;4.95;;;2.40;;
8958;SDS011;4514;49.476;8.484;2022-09-20T19:01:29;3.50;;;2.38;;
8958;SDS011;4514;49.476;8.484;2022-09-20T19:12:36;5.80;;;2.60;;
8958;SDS011;4514;49.476;8.484;2022-09-20T19:26:21;6.00;;;3.22;;
8958;SDS011;4514;49.476;8.484;2022-09-20T19:28:54;5.90;;;3.40;;
8958;SDS011;4514;49.476;8.484;2022-09-20T19:33:56;6.75;;;5.80;;
8958;SDS011;4514;49.476;8.484;2022-09-20T19:36:51;5.63;;;3.05;;
8958;SDS011;4514;49.476;8.484;2022-09-20T19:45:39;7.22;;;3.15;;
8958;SDS011;4514;49.476;8.484;2022-09-20T19:50:50;3.97;;;3.25;;
8958;SDS011;4514;49.476;8.484;2022-09-20T19:53:19;4.70;;;2.85;;
8958;SDS011;4514;49.476;8.484;2022-09-20T19:55:47;6.80;;;3.17;;
8958;SDS011;4514;49.476;8.484;2022-09-20T19:58:15;8.93;;;3.83;;
8958;SDS011;4514;49.476;8.484;2022-09-20T20:00:44;10.00;;;4.72;;
8958;SDS011;4514;49.476;8.484;2022-09-20T20:03:13;7.03;;;4.47;;
8958;SDS011;4514;49.476;8.484;2022-09-20T20:06:14;6.72;;;4.47;;
8958;SDS011;4514;49.476;8.484;2022-09-20T20:13:44;10.10;;;5.85;;
8958;SDS011;4514;49.476;8.484;2022-09-20T20:19:40;11.32;;;5.80;;
8958;SDS011;4514;49.476;8.484;2022-09-20T20:25:23;12.32;;;5.72;;
8958;SDS011;4514;49.476;8.484;2022-09-20T20:27:56;9.27;;;5.45;;
8958;SDS011;4514;49.476;8.484;2022-09-20T20:30:22;8.45;;;5.30;;
8958;SDS011;4514;49.476;8.484;2022-09-20T20:32:47;8.60;;;4.88;;
8958;SDS011;4514;49.476;8.484;2022-09-20T20:35:17;8.30;;;5.25;;
8958;SDS011;4514;49.476;8.484;2022-09-20T20:37:46;7.07;;;5.00;;
8958;SDS011;4514;49.476;8.484;2022-09-20T20:40:15;6.13;;;4.57;;
8958;SDS011;4514;49.476;8.484;2022-09-20T20:42:45;9.35;;;4.85;;
8958;SDS011;4514;49.476;8.484;2022-09-20T20:45:10;7.78;;;4.47;;
8958;SDS011;4514;49.476;8.484;2022-09-20T20:47:36;7.13;;;4.72;;
8958;SDS011;4514;49.476;8.484;2022-09-20T20:50:03;7.18;;;4.70;;
8958;SDS011;4514;49.476;8.484;2022-09-20T20:52:29;9.27;;;5.53;;
8958;SDS011;4514;49.476;8.484;2022-09-20T20:54:55;9.88;;;5.07;;
8958;SDS011;4514;49.476;8.484;2022-09-20T20:57:24;10.43;;;5.10;;
8958;SDS011;4514;49.476;8.484;2022-09-20T20:59:52;8.88;;;5.38;;
8958;SDS011;4514;49.476;8.484;2022-09-20T21:02:21;7.78;;;4.20;;
8958;SDS011;4514;49.476;8.484;2022-09-20T21:04:49;7.80;;;4.60;;
8958;SDS011;4514;49.476;8.484;2022-09-20T21:07:15;5.25;;;4.07;;
8958;SDS011;4514;49.476;8.484;2022-09-20T21:09:42;7.03;;;4.15;;
8958;SDS011;4514;49.476;8.484;2022-09-20T21:12:07;7.82;;;3.80;;
8958;SDS011;4514;49.476;8.484;2022-09-20T21:14:33;5.97;;;4.15;;
8958;SDS011;4514;49.476;8.484;2022-09-20T21:16:59;5.63;;;3.85;;
8958;SDS011;4514;49.476;8.484;2022-09-20T21:19:25;5.63;;;3.65;;
8958;SDS011;4514;49.476;8.484;2022-09-20T21:21:58;7.97;;;4.65;;
8958;SDS011;4514;49.476;8.484;2022-09-20T21:24:26;6.55;;;4.68;;
8958;SDS011;4514;49.476;8.484;2022-09-20T21:26:51;7.72;;;5.20;;
8958;SDS011;4514;49.476;8.484;2022-09-20T21:29:17;9.38;;;5.93;;
8958;SDS011;4514;49.476;8.484;2022-09-20T21:31:46;9.85;;;5.95;;
8958;SDS011;4514;49.476;8.484;2022-09-20T21:34:12;8.65;;;5.65;;
8958;SDS011;4514;49.476;8.484;2022-09-20T21:36:41;7.43;;;5.60;;
8958;SDS011;4514;49.476;8.484;2022-09-20T21:39:08;7.70;;;5.15;;
8958;SDS011;4514;49.476;8.484;2022-09-20T21:41:35;6.93;;;5.78;;
8958;SDS011;4514;49.476;8.484;2022-09-20T21:44:02;8.05;;;5.55;;
8958;SDS011;4514;49.476;8.484;2022-09-20T21:46:34;8.43;;;5.25;;
8958;SDS011;4514;49.476;8.484;2022-09-20T21:49:04;7.35;;;4.90;;
8958;SDS011;4514;49.476;8.484;2022-09-20T21:51:32;4.60;;;4.07;;
8958;SDS011;4514;49.476;8.484;2022-09-20T21:53:59;6.80;;;4.10;;
8958;SDS011;4514;49.476;8.484;2022-09-20T21:56:28;6.20;;;3.78;;
8958;SDS011;4514;49.476;8.484;2022-09-20T21:58:58;6.28;;;3.80;;